Latest Weather Observations for Parawa West

IDS60901

Issued at 8:05 am CDT Thursday 27 November 2014 (issued every 10 minutes, with the page automatically refreshed every 10 minutes)

About weather observations | Map of Adelaide area stations | Latest observations for Adelaide area | Other Formats
Station Details ID: 023875 Name: SECOND VALLEY FOREST AWS Lat: -35.57 Lon: 138.29 Height: 341.0 m
Data from the previous 72 hours. | See also: Recent months at Parawa West
Date/Time
CDT
Tmp

°C
App
Tmp
°C
Dew
Point
°C
Rel
Hum
%
Delta-T

°C
Wind Press
QNH
hPa
Press
MSL
hPa
Rain
since
9 am
mm
Dir
 
Spd
km/h
Gust
km/h
Spd
kts
Gust
kts
27/08:00am 12.2 8.0 9.6 84 1.3 ESE 22 33 12 18 1024.8 1024.3 0.0
27/07:30am 11.9 7.3 9.5 85 1.2 ESE 24 35 13 19 1024.7 1024.2 0.0
27/07:00am 11.7 6.3 9.4 86 1.2 SE 28 35 15 19 1024.2 1023.7 0.0
27/06:30am 11.6 7.0 9.7 88 1.0 ESE 24 33 13 18 1024.0 1023.5 0.0
27/06:00am 11.7 6.4 9.9 89 0.9 SE 28 37 15 20 1023.6 1023.1 0.0
27/05:30am 11.7 6.0 9.9 89 0.9 SE 30 35 16 19 1023.5 1023.0 0.0
27/05:00am 11.7 6.4 9.9 89 0.9 SE 28 37 15 20 1023.2 1022.8 0.0
27/04:30am 11.8 7.0 10.2 90 0.8 SE 26 35 14 19 1023.2 1022.8 0.0
27/04:00am 11.8 6.6 10.2 90 0.8 SE 28 39 15 21 1023.0 1022.6 0.0
27/03:30am 12.0 6.8 10.4 90 0.8 SE 28 37 15 20 1023.1 1022.7 0.0
27/03:00am 12.1 7.8 10.8 92 0.7 SE 24 30 13 16 1023.5 1023.0 0.0
27/02:30am 12.2 7.3 11.3 94 0.5 SE 28 35 15 19 1023.7 1023.2 0.0
27/02:00am 12.1 8.0 11.5 96 0.3 SE 24 33 13 18 1023.7 1023.2 0.0
27/01:30am 12.4 8.3 11.6 95 0.4 SE 24 33 13 18 1024.0 1023.5 0.0
27/01:00am 12.7 9.1 11.8 94 0.5 SE 22 32 12 17 1024.0 1023.5 0.0
27/12:30am 12.5 8.1 11.6 94 0.5 SE 26 33 14 18 1023.9 1023.4 0.0
27/12:00am 12.5 9.0 12.2 98 0.2 SE 22 32 12 17 1024.0 1023.5 0.0
 
Date/Time
CDT
Tmp

°C
App
Tmp
°C
Dew
Point
°C
Rel
Hum
%
Delta-T

°C
Wind Press
QNH
hPa
Press
MSL
hPa
Rain
since
9 am
mm
Dir
 
Spd
km/h
Gust
km/h
Spd
kts
Gust
kts
26/11:30pm 12.2 8.2 11.9 98 0.2 SE 24 32 13 17 1024.1 1023.6 0.0
26/11:00pm 12.3 9.1 12.0 98 0.2 SE 20 26 11 14 1024.4 1023.9 0.0
26/10:30pm 12.5 9.4 11.6 94 0.5 SE 19 26 10 14 1024.4 1023.9 0.0
26/10:00pm 12.8 9.1 11.4 91 0.8 SE 22 30 12 16 1024.2 1023.7 0.0
26/09:30pm 12.9 8.4 11.3 90 0.9 SE 26 35 14 19 1023.8 1023.3 0.0
26/09:00pm 12.9 8.7 11.1 89 1.0 SSE 24 33 13 18 1023.7 1023.2 0.0
26/08:30pm 13.1 8.8 10.6 85 1.3 SSE 24 32 13 17 1023.6 1023.1 0.0
26/08:00pm 13.0 7.4 10.0 82 1.6 SSE 30 41 16 22 1023.2 1022.8 0.0
26/07:30pm 13.2 8.0 10.4 83 1.5 SE 28 39 15 21 1023.1 1022.7 0.0
26/07:00pm 13.4 7.2 10.0 80 1.8 SSE 33 44 18 24 1022.8 1022.4 0.0
26/06:30pm 13.8 7.6 10.0 78 2.0 SSE 33 46 18 25 1022.5 1022.0 0.0
26/06:00pm 13.8 7.5 9.8 77 2.1 SSE 33 44 18 24 1022.3 1021.8 0.0
26/05:30pm 14.7 9.5 10.3 75 2.3 SSE 28 37 15 20 1022.4 1021.9 0.0
26/05:00pm 14.5 9.1 9.5 72 2.6 SSE 28 37 15 20 1022.8 1022.4 0.0
26/04:30pm 14.8 8.6 9.4 70 2.8 SSE 32 43 17 23 1022.7 1022.2 0.0
26/04:00pm 14.1 7.8 8.9 71 2.7 SSE 32 41 17 22 1022.7 1022.2 0.0
26/03:30pm 14.5 8.5 8.7 68 3.0 SSE 30 37 16 20 1022.9 1022.5 0.0
26/03:00pm 15.0 10.0 9.4 69 2.9 SSE 26 37 14 20 1023.2 1022.8 0.0
26/02:30pm 15.5 11.3 9.8 69 3.0 S 22 30 12 16 1023.6 1023.1 0.0
26/02:00pm 16.6 12.9 10.0 65 3.5 SSE 20 28 11 15 1023.8 1023.3 0.0
26/01:30pm 15.5 11.2 9.4 67 3.2 SSE 22 30 12 16 1024.1 1023.6 0.0
26/01:00pm 15.9 12.4 8.6 62 3.8 SSE 17 24 9 13 1024.3 1023.8 0.0
26/12:30pm 14.6 11.0 8.5 67 3.1 SSE 17 20 9 11 1024.5 1024.0 0.0
26/12:00pm 14.4 11.2 8.6 68 3.0 SSE 15 22 8 12 1024.7 1024.2 0.0
26/11:30am 14.2 11.3 8.2 67 3.0 S 13 19 7 10 1024.9 1024.4 0.0
26/11:00am 14.3 11.9 8.5 68 3.0 SSE 11 19 6 10 1024.8 1024.3 0.0
26/10:30am 14.1 11.1 7.9 66 3.1 S 13 20 7 11 1024.7 1024.2 0.0
26/10:00am 13.3 9.9 7.7 69 2.8 SSE 15 20 8 11 1024.6 1024.1 0.0
26/09:30am 13.0 10.0 7.7 70 2.6 SSE 13 19 7 10 1024.4 1023.9 0.0
26/09:00am 12.7 9.7 7.8 72 2.4 SSE 13 20 7 11 1024.1 1023.6 0.0
26/08:30am 12.3 9.7 7.8 74 2.2 SSE 11 19 6 10 1023.8 1023.3 0.0
26/08:00am 12.1 8.8 8.0 76 2.0 SSE 15 19 8 10 1023.5 1023.0 0.0
26/07:30am 11.7 8.7 7.8 77 1.9 SSE 13 19 7 10 1023.2 1022.8 0.0
26/07:00am 10.7 8.1 7.8 82 1.4 SSE 11 17 6 9 1022.6 1022.1 0.0
26/06:30am 8.7 6.7 6.2 84 1.2 SE 6 9 3 5 1022.4 1021.9 0.0
26/06:00am 8.5 6.3 6.3 86 1.0 SE 7 9 4 5 1022.1 1021.6 0.0
26/05:30am 8.2 6.0 6.2 87 0.9 SSE 7 9 4 5 1021.8 1021.3 0.0
26/05:00am 8.3 6.1 6.3 87 0.9 SSE 7 9 4 5 1021.7 1021.2 0.0
26/04:30am 8.7 6.8 6.7 87 0.9 SSE 6 7 3 4 1021.7 1021.2 0.0
26/04:00am 8.7 6.8 6.8 88 0.9 SSE 6 7 3 4 1021.8 1021.3 0.0
26/03:30am 9.1 7.1 7.1 87 1.0 SSE 7 11 4 6 1021.7 1021.2 0.0
26/03:00am 9.2 6.8 7.2 87 1.0 SE 9 11 5 6 1021.8 1021.3 0.0
26/02:30am 9.5 7.2 7.3 86 1.1 SSE 9 11 5 6 1021.9 1021.4 0.0
26/02:00am 9.8 7.5 7.4 85 1.2 SE 9 13 5 7 1021.9 1021.4 0.0
26/01:30am 10.3 8.1 7.7 84 1.3 SSE 9 13 5 7 1022.2 1021.7 0.0
26/01:00am 10.2 8.5 7.4 83 1.4 SSE 6 7 3 4 1022.6 1022.1 0.0
26/12:30am 10.4 8.7 7.5 82 1.4 SSE 6 7 3 4 1022.9 1022.5 0.0
26/12:00am 10.7 8.8 7.4 80 1.6 SSE 7 9 4 5 1023.1 1022.7 0.0
 
Date/Time
CDT
Tmp

°C
App
Tmp
°C
Dew
Point
°C
Rel
Hum
%
Delta-T

°C
Wind Press
QNH
hPa
Press
MSL
hPa
Rain
since
9 am
mm
Dir
 
Spd
km/h
Gust
km/h
Spd
kts
Gust
kts
25/11:30pm 11.4 9.1 7.5 77 1.9 SSE 9 15 5 8 1023.2 1022.8 0.0
25/11:00pm 11.7 9.4 7.6 76 2.0 S 9 13 5 7 1023.5 1023.0 0.0
25/10:30pm 11.9 9.2 7.4 74 2.2 S 11 15 6 8 1023.7 1023.2 0.0
25/10:00pm 12.1 9.5 7.6 74 2.2 S 11 17 6 9 1023.7 1023.2 0.0
25/09:30pm 12.1 9.4 7.4 73 2.3 S 11 15 6 8 1023.7 1023.2 0.0
25/09:00pm 12.1 9.0 7.4 73 2.3 S 13 17 7 9 1023.3 1022.9 0.0
25/08:30pm 12.1 9.0 7.2 72 2.4 S 13 19 7 10 1023.1 1022.7 0.0
25/08:00pm 12.2 9.0 6.9 70 2.6 S 13 19 7 10 1023.2 1022.8 0.0
25/07:30pm 12.4 9.0 7.7 73 2.3 SSE 15 20 8 11 1023.0 1022.6 0.0
25/07:00pm 12.6 8.4 7.5 71 2.5 S 19 24 10 13 1022.6 1022.1 0.0
25/06:30pm 13.3 9.2 7.7 69 2.8 S 19 24 10 13 1022.4 1021.9 0.0
25/06:00pm 13.8 10.1 7.8 67 3.0 S 17 24 9 13 1022.4 1021.9 0.0
25/05:30pm 13.4 9.3 8.0 70 2.7 S 19 26 10 14 1022.5 1022.0 0.0
25/05:00pm 13.5 9.5 8.1 70 2.7 S 19 22 10 12 1022.4 1021.9 0.0
25/04:30pm 13.9 10.3 8.5 70 2.7 S 17 26 9 14 1022.5 1022.0 0.0
25/04:00pm 15.0 11.3 9.4 69 2.9 S 19 24 10 13 1022.5 1022.0 0.0
25/03:30pm 13.6 9.5 8.7 72 2.5 S 20 30 11 16 1022.5 1022.0 0.0
25/03:00pm 14.0 9.4 8.2 68 2.9 SSE 22 28 12 15 1022.5 1022.0 0.0
25/02:30pm 14.3 10.3 8.3 67 3.0 S 19 24 10 13 1022.6 1022.1 0.0
25/02:00pm 14.1 10.2 8.7 70 2.8 S 19 26 10 14 1022.6 1022.1 0.0
25/01:30pm 15.8 12.6 6.8 55 4.5 W 13 26 7 14 1022.6 1022.1 0.0
25/01:00pm 16.5 13.7 6.9 53 4.8 W 11 17 6 9 1022.6 1022.1 0.0
25/12:30pm 16.9 14.0 6.7 51 5.1 WSW 11 22 6 12 1022.7 1022.2 0.0
25/12:00pm 14.9 10.4 6.2 56 4.2 W 19 24 10 13 1022.9 1022.5 0.0
25/11:30am 15.4 12.0 4.2 47 5.3 WNW 11 22 6 12 1023.0 1022.6 0.0
25/11:00am 14.2 10.5 4.5 52 4.6 W 13 20 7 11 1023.1 1022.7 0.0
25/10:30am 15.1 11.8 4.5 49 5.0 W 11 19 6 10 1023.0 1022.6 0.0
25/10:00am 13.5 9.6 5.4 58 3.9 W 15 20 8 11 1023.1 1022.7 0.0
25/09:30am 13.4 10.1 6.5 63 3.4 WSW 13 22 7 12 1023.1 1022.7 0.0
25/09:00am 12.5 10.5 8.8 78 1.9 WSW 9 15 5 8 1022.9 1022.5 0.0
25/08:30am 11.6 10.4 9.5 87 1.1 W 6 9 3 5 1022.5 1022.0 0.0
25/08:00am 11.2 9.1 8.2 82 1.5 WSW 9 13 5 7 1022.2 1021.7 0.0
25/07:30am 11.6 9.1 8.3 80 1.6 W 11 15 6 8 1022.0 1021.5 0.0
25/07:00am 10.8 8.9 7.5 80 1.6 WSW 7 9 4 5 1021.5 1021.0 0.0
25/06:30am 9.8 8.0 7.1 83 1.3 SW 6 7 3 4 1021.1 1020.6 0.0
25/06:00am 9.8 7.8 7.1 83 1.3 SW 7 11 4 6 1020.7 1020.2 0.0
25/05:30am 9.6 7.6 7.0 84 1.2 SW 7 13 4 7 1020.4 1019.9 0.0
25/05:00am 9.8 7.5 7.6 86 1.1 SW 9 13 5 7 1019.9 1019.4 0.0
25/04:30am 10.2 8.6 8.0 86 1.1 WSW 6 7 3 4 1019.8 1019.3 0.0
25/04:00am 10.4 8.7 8.5 88 0.9 WSW 7 11 4 6 1019.7 1019.2 0.0
25/03:30am 10.1 9.0 8.4 89 0.8 SW 4 7 2 4 1019.5 1019.0 0.0
25/03:00am 9.8 8.2 7.9 88 0.9 SW 6 9 3 5 1019.4 1018.9 0.0
25/02:30am 10.1 7.9 8.0 87 1.0 SW 9 11 5 6 1019.3 1018.8 0.0
25/02:00am 10.2 8.6 7.8 85 1.2 WSW 6 9 3 5 1019.4 1018.9 0.0
25/01:30am 10.4 8.5 7.6 83 1.4 WSW 7 11 4 6 1019.5 1019.0 0.0
25/01:00am 10.3 8.4 7.4 82 1.4 SW 7 13 4 7 1019.6 1019.1 0.0
25/12:30am 10.6 8.2 7.1 79 1.7 WSW 9 17 5 9 1019.7 1019.2 0.0
25/12:00am 11.1 8.0 7.4 78 1.8 SW 13 24 7 13 1019.6 1019.1 0.0
 
Date/Time
CDT
Tmp

°C
App
Tmp
°C
Dew
Point
°C
Rel
Hum
%
Delta-T

°C
Wind Press
QNH
hPa
Press
MSL
hPa
Rain
since
9 am
mm
Dir
 
Spd
km/h
Gust
km/h
Spd
kts
Gust
kts
24/11:30pm 11.0 8.3 7.3 78 1.8 WSW 11 19 6 10 1019.5 1019.0 0.0
24/11:00pm 11.0 8.3 7.5 79 1.7 SW 11 19 6 10 1019.5 1019.0 0.0
24/10:30pm 11.1 8.3 7.0 76 2.0 SW 11 17 6 9 1019.4 1018.9 0.0
24/10:00pm 11.3 8.5 7.0 75 2.1 SW 11 20 6 11 1019.3 1018.8 0.0
24/09:30pm 11.4 8.2 6.9 74 2.2 SW 13 22 7 12 1019.0 1018.5 0.0
24/09:00pm 11.6 7.9 6.5 71 2.5 SW 15 24 8 13 1018.5 1018.0 0.0
24/08:30pm 11.8 7.7 6.3 69 2.6 SSW 17 24 9 13 1018.1 1017.6 0.0
24/08:00pm 12.1 8.2 7.0 71 2.5 SSW 17 28 9 15 1017.9 1017.4 0.0
24/07:30pm 13.0 9.5 7.0 67 2.9 SSW 15 26 8 14 1017.5 1016.9 0.0
24/07:00pm 13.5 8.2 6.8 64 3.3 SSW 24 37 13 20 1016.9 1016.4 0.0
24/06:30pm 14.0 9.2 7.3 64 3.3 SW 22 35 12 19 1016.4 1015.9 0.0
24/06:00pm 14.9 10.0 7.0 59 3.9 SW 22 35 12 19 1016.2 1015.7 0.0
24/05:30pm 15.1 9.9 7.2 59 4.0 SW 24 43 13 23 1015.9 1015.4 0.0
24/05:00pm 15.9 10.7 7.1 56 4.4 SSW 24 35 13 19 1015.7 1015.2 0.0
24/04:30pm 15.4 10.7 7.7 60 3.9 SSW 22 41 12 22 1015.4 1014.9 0.0
24/04:00pm 16.8 12.2 8.0 56 4.5 SSW 22 35 12 19 1015.2 1014.7 0.0
24/03:30pm 17.4 13.5 7.2 51 5.2 WSW 17 24 9 13 1015.0 1014.4 0.0
24/03:00pm 16.7 12.1 6.5 51 5.1 SW 20 30 11 16 1014.8 1014.2 0.0
24/02:30pm 16.0 11.8 8.2 60 4.0 SW 20 33 11 18 1014.9 1014.3 0.0
24/02:00pm 15.3 9.7 8.8 65 3.4 SSW 28 41 15 22 1014.8 1014.2 0.0
24/01:30pm 16.2 11.8 8.9 62 3.8 SW 22 35 12 19 1014.6 1014.0 0.0
24/01:00pm 15.7 12.7 9.1 65 3.5 SW 15 24 8 13 1014.4 1013.8 0.0
24/12:30pm 13.0 9.4 10.7 86 1.2 SW 20 33 11 18 1014.7 1014.1 0.0
24/12:00pm 15.4 12.3 10.4 72 2.7 WSW 17 24 9 13 1014.4 1013.8 0.0
24/11:30am 15.5 11.9 9.8 69 3.0 SW 19 30 10 16 1014.2 1013.6 0.0
24/11:00am 15.4 12.5 11.0 75 2.4 SW 17 33 9 18 1013.8 1013.3 0.0
24/10:30am 13.7 11.3 12.6 93 0.6 SW 17 28 9 15 1013.6 1013.1 0.0
24/10:00am 15.8 14.1 12.4 80 1.9 SW 13 20 7 11 1013.2 1012.7 0.0
24/09:30am 15.6 12.7 12.4 81 1.8 S 19 26 10 14 1012.9 1012.4 0.0
24/09:00am 16.1 13.4 12.8 81 1.9 S 19 24 10 13 1012.4 1011.8 3.4
24/08:30am 15.3 12.4 12.4 83 1.6 S 19 28 10 15 1012.2 1011.6 3.4

Latest Capital City Observations: Canberra | Sydney | Melbourne | Brisbane | Adelaide | Perth | Hobart | Darwin

Other Formats:

Comma delimited format used in spreadsheet applications
http://www.bom.gov.au/fwo/IDS60901/IDS60901.94811.axf

JavaScript Object Notation format (JSON) in row-major order
http://www.bom.gov.au/fwo/IDS60901/IDS60901.94811.json